sensor_id;sensor_type;location;lat;lon;timestamp;P1;durP1;ratioP1;P2;durP2;ratioP2
24681;SDS011;12802;53.390;-2.328;2023-04-25T00:01:39;16.95;;;5.80;;
24681;SDS011;12802;53.390;-2.328;2023-04-25T00:04:05;13.10;;;5.15;;
24681;SDS011;12802;53.390;-2.328;2023-04-25T00:06:32;14.23;;;6.32;;
24681;SDS011;12802;53.390;-2.328;2023-04-25T00:09:01;12.13;;;5.97;;
24681;SDS011;12802;53.390;-2.328;2023-04-25T00:11:28;15.07;;;5.75;;
24681;SDS011;12802;53.390;-2.328;2023-04-25T00:13:56;14.57;;;5.95;;
24681;SDS011;12802;53.390;-2.328;2023-04-25T00:16:22;13.23;;;6.20;;
24681;SDS011;12802;53.390;-2.328;2023-04-25T00:18:48;13.70;;;4.72;;
24681;SDS011;12802;53.390;-2.328;2023-04-25T00:21:17;17.95;;;4.90;;
24681;SDS011;12802;53.390;-2.328;2023-04-25T00:23:44;14.05;;;5.65;;
24681;SDS011;12802;53.390;-2.328;2023-04-25T00:26:11;12.27;;;5.68;;
24681;SDS011;12802;53.390;-2.328;2023-04-25T00:28:36;18.48;;;5.63;;
24681;SDS011;12802;53.390;-2.328;2023-04-25T00:31:03;9.27;;;4.80;;
24681;SDS011;12802;53.390;-2.328;2023-04-25T00:33:29;12.05;;;4.57;;
24681;SDS011;12802;53.390;-2.328;2023-04-25T00:35:55;16.08;;;4.72;;
24681;SDS011;12802;53.390;-2.328;2023-04-25T00:38:21;15.00;;;5.18;;
24681;SDS011;12802;53.390;-2.328;2023-04-25T00:40:47;11.45;;;4.80;;
24681;SDS011;12802;53.390;-2.328;2023-04-25T00:43:13;19.88;;;6.05;;
24681;SDS011;12802;53.390;-2.328;2023-04-25T00:45:39;13.77;;;5.88;;
24681;SDS011;12802;53.390;-2.328;2023-04-25T00:48:05;15.68;;;6.60;;
24681;SDS011;12802;53.390;-2.328;2023-04-25T00:50:34;8.90;;;5.07;;
24681;SDS011;12802;53.390;-2.328;2023-04-25T00:53:01;12.15;;;5.18;;
24681;SDS011;12802;53.390;-2.328;2023-04-25T00:55:28;12.43;;;5.25;;
24681;SDS011;12802;53.390;-2.328;2023-04-25T00:57:54;13.05;;;5.03;;
24681;SDS011;12802;53.390;-2.328;2023-04-25T01:00:20;11.75;;;4.35;;
24681;SDS011;12802;53.390;-2.328;2023-04-25T01:02:46;17.90;;;5.40;;
24681;SDS011;12802;53.390;-2.328;2023-04-25T01:05:13;7.18;;;3.95;;
24681;SDS011;12802;53.390;-2.328;2023-04-25T01:07:39;12.63;;;4.57;;
24681;SDS011;12802;53.390;-2.328;2023-04-25T01:10:05;11.70;;;5.18;;
24681;SDS011;12802;53.390;-2.328;2023-04-25T01:12:32;12.60;;;5.38;;
24681;SDS011;12802;53.390;-2.328;2023-04-25T01:14:58;14.52;;;5.22;;
24681;SDS011;12802;53.390;-2.328;2023-04-25T01:17:23;14.95;;;5.03;;
24681;SDS011;12802;53.390;-2.328;2023-04-25T01:19:50;12.55;;;5.57;;
24681;SDS011;12802;53.390;-2.328;2023-04-25T01:22:16;15.23;;;5.22;;
24681;SDS011;12802;53.390;-2.328;2023-04-25T01:24:42;14.00;;;5.15;;
24681;SDS011;12802;53.390;-2.328;2023-04-25T01:27:09;10.85;;;4.95;;
24681;SDS011;12802;53.390;-2.328;2023-04-25T01:29:35;14.98;;;6.15;;
24681;SDS011;12802;53.390;-2.328;2023-04-25T01:32:02;15.88;;;5.93;;
24681;SDS011;12802;53.390;-2.328;2023-04-25T01:34:28;9.80;;;5.57;;
24681;SDS011;12802;53.390;-2.328;2023-04-25T01:36:56;16.63;;;5.88;;
24681;SDS011;12802;53.390;-2.328;2023-04-25T01:39:27;13.45;;;5.40;;
24681;SDS011;12802;53.390;-2.328;2023-04-25T01:41:53;23.35;;;8.73;;
24681;SDS011;12802;53.390;-2.328;2023-04-25T01:44:20;21.45;;;7.45;;
24681;SDS011;12802;53.390;-2.328;2023-04-25T01:46:45;27.20;;;10.70;;
24681;SDS011;12802;53.390;-2.328;2023-04-25T01:49:11;14.07;;;8.68;;
24681;SDS011;12802;53.390;-2.328;2023-04-25T01:51:38;20.20;;;8.07;;
24681;SDS011;12802;53.390;-2.328;2023-04-25T01:54:04;20.15;;;9.43;;
24681;SDS011;12802;53.390;-2.328;2023-04-25T01:56:31;24.67;;;11.77;;
24681;SDS011;12802;53.390;-2.328;2023-04-25T01:58:58;36.45;;;14.38;;
24681;SDS011;12802;53.390;-2.328;2023-04-25T02:01:52;20.85;;;9.77;;
24681;SDS011;12802;53.390;-2.328;2023-04-25T02:04:24;25.10;;;12.20;;
24681;SDS011;12802;53.390;-2.328;2023-04-25T02:06:50;33.22;;;11.82;;
24681;SDS011;12802;53.390;-2.328;2023-04-25T02:09:38;31.42;;;15.18;;
24681;SDS011;12802;53.390;-2.328;2023-04-25T02:12:05;37.13;;;17.92;;
24681;SDS011;12802;53.390;-2.328;2023-04-25T02:14:53;25.17;;;13.90;;
24681;SDS011;12802;53.390;-2.328;2023-04-25T02:17:48;23.52;;;12.38;;
24681;SDS011;12802;53.390;-2.328;2023-04-25T02:20:14;22.33;;;12.02;;
24681;SDS011;12802;53.390;-2.328;2023-04-25T02:22:41;24.20;;;11.35;;
24681;SDS011;12802;53.390;-2.328;2023-04-25T02:25:08;32.50;;;13.52;;
24681;SDS011;12802;53.390;-2.328;2023-04-25T02:27:35;22.23;;;10.57;;
24681;SDS011;12802;53.390;-2.328;2023-04-25T02:30:01;15.93;;;8.13;;
24681;SDS011;12802;53.390;-2.328;2023-04-25T02:32:27;13.27;;;7.97;;
24681;SDS011;12802;53.390;-2.328;2023-04-25T02:34:53;13.77;;;6.03;;
24681;SDS011;12802;53.390;-2.328;2023-04-25T02:37:19;11.43;;;5.20;;
24681;SDS011;12802;53.390;-2.328;2023-04-25T02:39:45;17.73;;;5.03;;
24681;SDS011;12802;53.390;-2.328;2023-04-25T02:42:11;10.68;;;4.88;;
24681;SDS011;12802;53.390;-2.328;2023-04-25T02:44:37;15.63;;;4.90;;
24681;SDS011;12802;53.390;-2.328;2023-04-25T02:47:04;8.80;;;4.78;;
24681;SDS011;12802;53.390;-2.328;2023-04-25T02:49:30;9.45;;;5.20;;
24681;SDS011;12802;53.390;-2.328;2023-04-25T02:51:55;11.10;;;5.20;;
24681;SDS011;12802;53.390;-2.328;2023-04-25T02:54:21;14.93;;;5.75;;
24681;SDS011;12802;53.390;-2.328;2023-04-25T02:56:47;12.43;;;6.15;;
24681;SDS011;12802;53.390;-2.328;2023-04-25T02:59:19;15.18;;;7.30;;
24681;SDS011;12802;53.390;-2.328;2023-04-25T03:01:45;13.85;;;6.85;;
24681;SDS011;12802;53.390;-2.328;2023-04-25T03:04:10;17.50;;;5.95;;
24681;SDS011;12802;53.390;-2.328;2023-04-25T03:06:36;10.18;;;5.65;;
24681;SDS011;12802;53.390;-2.328;2023-04-25T03:09:02;13.85;;;6.68;;
24681;SDS011;12802;53.390;-2.328;2023-04-25T03:11:29;11.20;;;6.15;;
24681;SDS011;12802;53.390;-2.328;2023-04-25T03:13:55;14.07;;;5.70;;
24681;SDS011;12802;53.390;-2.328;2023-04-25T03:16:21;11.90;;;4.45;;
24681;SDS011;12802;53.390;-2.328;2023-04-25T03:18:48;14.18;;;5.05;;
24681;SDS011;12802;53.390;-2.328;2023-04-25T03:21:16;9.98;;;4.55;;
24681;SDS011;12802;53.390;-2.328;2023-04-25T03:23:42;9.30;;;5.20;;
24681;SDS011;12802;53.390;-2.328;2023-04-25T03:26:08;12.38;;;5.05;;
24681;SDS011;12802;53.390;-2.328;2023-04-25T03:28:33;10.00;;;5.80;;
24681;SDS011;12802;53.390;-2.328;2023-04-25T03:30:59;18.00;;;8.60;;
24681;SDS011;12802;53.390;-2.328;2023-04-25T03:33:25;15.48;;;8.35;;
24681;SDS011;12802;53.390;-2.328;2023-04-25T03:35:51;18.60;;;8.02;;
24681;SDS011;12802;53.390;-2.328;2023-04-25T03:38:17;22.63;;;9.32;;
24681;SDS011;12802;53.390;-2.328;2023-04-25T03:40:44;26.10;;;13.70;;
24681;SDS011;12802;53.390;-2.328;2023-04-25T03:43:19;32.72;;;13.23;;
24681;SDS011;12802;53.390;-2.328;2023-04-25T03:45:51;20.67;;;9.65;;
24681;SDS011;12802;53.390;-2.328;2023-04-25T03:48:20;22.35;;;11.32;;
24681;SDS011;12802;53.390;-2.328;2023-04-25T03:50:50;24.15;;;10.95;;
24681;SDS011;12802;53.390;-2.328;2023-04-25T03:53:16;18.60;;;8.65;;
24681;SDS011;12802;53.390;-2.328;2023-04-25T03:56:20;15.52;;;6.90;;
24681;SDS011;12802;53.390;-2.328;2023-04-25T03:58:52;18.63;;;8.35;;
24681;SDS011;12802;53.390;-2.328;2023-04-25T04:01:21;11.05;;;5.93;;
24681;SDS011;12802;53.390;-2.328;2023-04-25T04:03:46;11.75;;;5.35;;
24681;SDS011;12802;53.390;-2.328;2023-04-25T04:06:12;11.50;;;4.45;;
24681;SDS011;12802;53.390;-2.328;2023-04-25T04:08:41;11.85;;;4.65;;
24681;SDS011;12802;53.390;-2.328;2023-04-25T04:11:08;20.77;;;5.40;;
24681;SDS011;12802;53.390;-2.328;2023-04-25T04:13:34;7.93;;;4.50;;
24681;SDS011;12802;53.390;-2.328;2023-04-25T04:16:01;9.75;;;4.97;;
24681;SDS011;12802;53.390;-2.328;2023-04-25T04:18:28;10.10;;;4.88;;
24681;SDS011;12802;53.390;-2.328;2023-04-25T04:20:55;13.30;;;5.38;;
24681;SDS011;12802;53.390;-2.328;2023-04-25T04:23:23;14.30;;;6.10;;
24681;SDS011;12802;53.390;-2.328;2023-04-25T04:25:50;12.82;;;5.65;;
24681;SDS011;12802;53.390;-2.328;2023-04-25T04:28:34;13.45;;;4.78;;
24681;SDS011;12802;53.390;-2.328;2023-04-25T04:31:22;11.07;;;4.88;;
24681;SDS011;12802;53.390;-2.328;2023-04-25T04:33:49;15.15;;;5.00;;
24681;SDS011;12802;53.390;-2.328;2023-04-25T04:36:16;8.85;;;5.32;;
24681;SDS011;12802;53.390;-2.328;2023-04-25T04:41:18;7.28;;;4.82;;
24681;SDS011;12802;53.390;-2.328;2023-04-25T04:43:53;9.32;;;4.70;;
24681;SDS011;12802;53.390;-2.328;2023-04-25T04:46:39;11.88;;;5.70;;
24681;SDS011;12802;53.390;-2.328;2023-04-25T04:49:12;14.20;;;5.50;;
24681;SDS011;12802;53.390;-2.328;2023-04-25T04:52:01;19.58;;;8.57;;
24681;SDS011;12802;53.390;-2.328;2023-04-25T04:54:34;55.83;;;29.05;;
24681;SDS011;12802;53.390;-2.328;2023-04-25T04:57:19;50.10;;;27.95;;
24681;SDS011;12802;53.390;-2.328;2023-04-25T05:00:00;37.47;;;21.30;;
24681;SDS011;12802;53.390;-2.328;2023-04-25T05:02:45;45.67;;;22.45;;
24681;SDS011;12802;53.390;-2.328;2023-04-25T05:05:14;16.83;;;10.73;;
24681;SDS011;12802;53.390;-2.328;2023-04-25T05:07:58;16.13;;;10.02;;
24681;SDS011;12802;53.390;-2.328;2023-04-25T05:10:32;11.70;;;5.20;;
24681;SDS011;12802;53.390;-2.328;2023-04-25T05:13:24;8.57;;;4.88;;
24681;SDS011;12802;53.390;-2.328;2023-04-25T05:16:08;13.00;;;5.30;;
24681;SDS011;12802;53.390;-2.328;2023-04-25T05:18:47;11.57;;;5.65;;
24681;SDS011;12802;53.390;-2.328;2023-04-25T05:21:33;16.95;;;5.47;;
24681;SDS011;12802;53.390;-2.328;2023-04-25T05:24:05;11.25;;;6.10;;
24681;SDS011;12802;53.390;-2.328;2023-04-25T05:26:49;18.73;;;7.45;;
24681;SDS011;12802;53.390;-2.328;2023-04-25T05:29:32;13.77;;;5.88;;
24681;SDS011;12802;53.390;-2.328;2023-04-25T05:32:05;11.73;;;6.22;;
24681;SDS011;12802;53.390;-2.328;2023-04-25T05:34:31;13.38;;;6.22;;
24681;SDS011;12802;53.390;-2.328;2023-04-25T05:37:03;15.00;;;5.85;;
24681;SDS011;12802;53.390;-2.328;2023-04-25T05:39:30;13.20;;;6.50;;
24681;SDS011;12802;53.390;-2.328;2023-04-25T05:42:25;17.30;;;5.88;;
24681;SDS011;12802;53.390;-2.328;2023-04-25T05:45:00;10.55;;;5.25;;
24681;SDS011;12802;53.390;-2.328;2023-04-25T05:47:50;8.50;;;5.28;;
24681;SDS011;12802;53.390;-2.328;2023-04-25T05:50:21;12.68;;;5.53;;
24681;SDS011;12802;53.390;-2.328;2023-04-25T05:52:53;14.43;;;5.80;;
24681;SDS011;12802;53.390;-2.328;2023-04-25T05:55:30;15.32;;;6.65;;
24681;SDS011;12802;53.390;-2.328;2023-04-25T05:57:58;14.45;;;6.50;;
24681;SDS011;12802;53.390;-2.328;2023-04-25T06:00:24;9.23;;;5.13;;
24681;SDS011;12802;53.390;-2.328;2023-04-25T06:02:50;10.50;;;5.78;;
24681;SDS011;12802;53.390;-2.328;2023-04-25T06:05:16;16.77;;;6.70;;
24681;SDS011;12802;53.390;-2.328;2023-04-25T06:07:44;11.30;;;6.63;;
24681;SDS011;12802;53.390;-2.328;2023-04-25T06:10:10;13.68;;;5.97;;
24681;SDS011;12802;53.390;-2.328;2023-04-25T06:12:36;12.32;;;6.10;;
24681;SDS011;12802;53.390;-2.328;2023-04-25T06:15:04;20.00;;;7.50;;
24681;SDS011;12802;53.390;-2.328;2023-04-25T06:17:30;10.43;;;6.38;;
24681;SDS011;12802;53.390;-2.328;2023-04-25T06:19:57;12.23;;;6.75;;
24681;SDS011;12802;53.390;-2.328;2023-04-25T06:22:22;14.93;;;7.00;;
24681;SDS011;12802;53.390;-2.328;2023-04-25T06:24:48;14.70;;;7.00;;
24681;SDS011;12802;53.390;-2.328;2023-04-25T06:27:14;12.18;;;6.10;;
24681;SDS011;12802;53.390;-2.328;2023-04-25T06:29:39;12.82;;;6.60;;
24681;SDS011;12802;53.390;-2.328;2023-04-25T06:32:05;16.13;;;7.15;;
24681;SDS011;12802;53.390;-2.328;2023-04-25T06:34:31;18.10;;;6.55;;
24681;SDS011;12802;53.390;-2.328;2023-04-25T06:36:57;12.90;;;5.75;;
24681;SDS011;12802;53.390;-2.328;2023-04-25T06:39:24;14.30;;;6.32;;
24681;SDS011;12802;53.390;-2.328;2023-04-25T06:41:50;13.45;;;6.32;;
24681;SDS011;12802;53.390;-2.328;2023-04-25T06:44:34;11.65;;;5.68;;
24681;SDS011;12802;53.390;-2.328;2023-04-25T06:47:02;10.57;;;6.57;;
24681;SDS011;12802;53.390;-2.328;2023-04-25T06:49:28;12.63;;;6.68;;
24681;SDS011;12802;53.390;-2.328;2023-04-25T06:51:54;15.48;;;5.70;;
24681;SDS011;12802;53.390;-2.328;2023-04-25T06:54:20;10.63;;;4.95;;
24681;SDS011;12802;53.390;-2.328;2023-04-25T06:56:55;16.90;;;5.45;;
24681;SDS011;12802;53.390;-2.328;2023-04-25T06:59:22;12.20;;;5.78;;
24681;SDS011;12802;53.390;-2.328;2023-04-25T07:01:49;9.80;;;4.75;;
24681;SDS011;12802;53.390;-2.328;2023-04-25T07:04:22;8.27;;;4.55;;
24681;SDS011;12802;53.390;-2.328;2023-04-25T07:06:52;15.52;;;5.03;;
24681;SDS011;12802;53.390;-2.328;2023-04-25T07:09:23;14.60;;;4.55;;
24681;SDS011;12802;53.390;-2.328;2023-04-25T07:11:50;11.13;;;4.93;;
24681;SDS011;12802;53.390;-2.328;2023-04-25T07:14:16;13.90;;;3.90;;
24681;SDS011;12802;53.390;-2.328;2023-04-25T07:16:42;7.63;;;3.80;;
24681;SDS011;12802;53.390;-2.328;2023-04-25T07:19:07;11.23;;;5.00;;
24681;SDS011;12802;53.390;-2.328;2023-04-25T07:21:33;10.02;;;4.35;;
24681;SDS011;12802;53.390;-2.328;2023-04-25T07:24:02;11.80;;;4.35;;
24681;SDS011;12802;53.390;-2.328;2023-04-25T07:26:32;19.30;;;4.80;;
24681;SDS011;12802;53.390;-2.328;2023-04-25T07:29:27;12.35;;;4.82;;
24681;SDS011;12802;53.390;-2.328;2023-04-25T07:31:53;9.35;;;4.50;;
24681;SDS011;12802;53.390;-2.328;2023-04-25T07:34:20;14.65;;;4.18;;
24681;SDS011;12802;53.390;-2.328;2023-04-25T07:36:46;6.57;;;3.53;;
24681;SDS011;12802;53.390;-2.328;2023-04-25T07:39:12;6.93;;;3.55;;
24681;SDS011;12802;53.390;-2.328;2023-04-25T07:41:38;12.98;;;4.03;;
24681;SDS011;12802;53.390;-2.328;2023-04-25T07:44:04;12.35;;;3.78;;
24681;SDS011;12802;53.390;-2.328;2023-04-25T07:46:31;11.98;;;3.67;;
24681;SDS011;12802;53.390;-2.328;2023-04-25T07:48:57;9.43;;;3.92;;
24681;SDS011;12802;53.390;-2.328;2023-04-25T07:51:22;7.03;;;3.58;;
24681;SDS011;12802;53.390;-2.328;2023-04-25T07:53:52;9.43;;;3.78;;
24681;SDS011;12802;53.390;-2.328;2023-04-25T07:56:19;9.75;;;3.40;;
24681;SDS011;12802;53.390;-2.328;2023-04-25T07:58:47;8.43;;;3.42;;
24681;SDS011;12802;53.390;-2.328;2023-04-25T08:01:15;14.38;;;3.20;;
24681;SDS011;12802;53.390;-2.328;2023-04-25T08:03:52;9.65;;;3.30;;
24681;SDS011;12802;53.390;-2.328;2023-04-25T08:06:28;10.23;;;2.83;;
24681;SDS011;12802;53.390;-2.328;2023-04-25T08:09:05;8.23;;;3.60;;
24681;SDS011;12802;53.390;-2.328;2023-04-25T08:11:36;14.45;;;4.32;;
24681;SDS011;12802;53.390;-2.328;2023-04-25T08:14:03;8.55;;;3.60;;
24681;SDS011;12802;53.390;-2.328;2023-04-25T08:16:29;9.68;;;3.42;;
24681;SDS011;12802;53.390;-2.328;2023-04-25T08:18:56;10.10;;;3.20;;
24681;SDS011;12802;53.390;-2.328;2023-04-25T08:21:21;9.80;;;3.50;;
24681;SDS011;12802;53.390;-2.328;2023-04-25T08:23:48;7.88;;;3.47;;
24681;SDS011;12802;53.390;-2.328;2023-04-25T08:26:22;9.75;;;4.00;;
24681;SDS011;12802;53.390;-2.328;2023-04-25T08:28:49;8.95;;;3.42;;
24681;SDS011;12802;53.390;-2.328;2023-04-25T08:31:15;9.82;;;3.28;;
24681;SDS011;12802;53.390;-2.328;2023-04-25T08:33:54;7.38;;;3.42;;
24681;SDS011;12802;53.390;-2.328;2023-04-25T08:36:46;10.10;;;3.13;;
24681;SDS011;12802;53.390;-2.328;2023-04-25T08:39:18;11.77;;;3.97;;
24681;SDS011;12802;53.390;-2.328;2023-04-25T08:42:06;6.43;;;3.75;;
24681;SDS011;12802;53.390;-2.328;2023-04-25T08:44:33;8.57;;;3.15;;
24681;SDS011;12802;53.390;-2.328;2023-04-25T08:47:03;15.98;;;3.70;;
24681;SDS011;12802;53.390;-2.328;2023-04-25T08:49:33;9.82;;;3.72;;
24681;SDS011;12802;53.390;-2.328;2023-04-25T08:52:00;11.05;;;3.65;;
24681;SDS011;12802;53.390;-2.328;2023-04-25T08:54:29;9.52;;;4.18;;
24681;SDS011;12802;53.390;-2.328;2023-04-25T08:56:56;13.73;;;3.35;;
24681;SDS011;12802;53.390;-2.328;2023-04-25T08:59:26;10.68;;;3.90;;
24681;SDS011;12802;53.390;-2.328;2023-04-25T09:01:54;9.65;;;3.75;;
24681;SDS011;12802;53.390;-2.328;2023-04-25T09:04:21;5.85;;;3.65;;
24681;SDS011;12802;53.390;-2.328;2023-04-25T09:06:47;9.43;;;3.83;;
24681;SDS011;12802;53.390;-2.328;2023-04-25T09:09:13;13.82;;;4.25;;
24681;SDS011;12802;53.390;-2.328;2023-04-25T09:11:39;12.85;;;3.97;;
24681;SDS011;12802;53.390;-2.328;2023-04-25T09:14:13;9.38;;;3.92;;
24681;SDS011;12802;53.390;-2.328;2023-04-25T09:19:36;6.70;;;3.93;;
24681;SDS011;12802;53.390;-2.328;2023-04-25T09:22:13;6.15;;;3.42;;
24681;SDS011;12802;53.390;-2.328;2023-04-25T09:24:42;11.90;;;3.88;;
24681;SDS011;12802;53.390;-2.328;2023-04-25T09:27:11;11.30;;;3.40;;
24681;SDS011;12802;53.390;-2.328;2023-04-25T09:29:43;6.45;;;3.65;;
24681;SDS011;12802;53.390;-2.328;2023-04-25T09:34:40;9.07;;;3.38;;
24681;SDS011;12802;53.390;-2.328;2023-04-25T09:37:11;6.75;;;3.85;;
24681;SDS011;12802;53.390;-2.328;2023-04-25T09:40:09;8.82;;;4.20;;
24681;SDS011;12802;53.390;-2.328;2023-04-25T09:42:57;17.52;;;4.22;;
24681;SDS011;12802;53.390;-2.328;2023-04-25T09:45:25;6.85;;;3.90;;
24681;SDS011;12802;53.390;-2.328;2023-04-25T09:47:52;6.32;;;3.40;;
24681;SDS011;12802;53.390;-2.328;2023-04-25T09:50:25;8.80;;;3.83;;
24681;SDS011;12802;53.390;-2.328;2023-04-25T09:53:04;8.52;;;3.85;;
24681;SDS011;12802;53.390;-2.328;2023-04-25T09:55:46;7.30;;;4.07;;
24681;SDS011;12802;53.390;-2.328;2023-04-25T09:58:12;14.90;;;4.82;;
24681;SDS011;12802;53.390;-2.328;2023-04-25T10:00:39;8.45;;;4.38;;
24681;SDS011;12802;53.390;-2.328;2023-04-25T10:03:19;9.25;;;4.15;;
24681;SDS011;12802;53.390;-2.328;2023-04-25T10:06:19;9.87;;;4.23;;
24681;SDS011;12802;53.390;-2.328;2023-04-25T10:08:49;10.60;;;4.18;;
24681;SDS011;12802;53.390;-2.328;2023-04-25T10:11:18;8.13;;;4.30;;
24681;SDS011;12802;53.390;-2.328;2023-04-25T10:13:48;9.27;;;3.97;;
24681;SDS011;12802;53.390;-2.328;2023-04-25T10:16:14;9.02;;;4.30;;
24681;SDS011;12802;53.390;-2.328;2023-04-25T10:18:41;6.80;;;3.95;;
24681;SDS011;12802;53.390;-2.328;2023-04-25T10:21:07;7.93;;;3.80;;
24681;SDS011;12802;53.390;-2.328;2023-04-25T10:23:32;9.10;;;4.47;;
24681;SDS011;12802;53.390;-2.328;2023-04-25T10:25:59;6.97;;;3.88;;
24681;SDS011;12802;53.390;-2.328;2023-04-25T10:28:26;5.93;;;3.20;;
24681;SDS011;12802;53.390;-2.328;2023-04-25T10:31:00;10.10;;;4.30;;
24681;SDS011;12802;53.390;-2.328;2023-04-25T10:33:34;9.07;;;4.15;;
24681;SDS011;12802;53.390;-2.328;2023-04-25T10:36:08;11.43;;;4.38;;
24681;SDS011;12802;53.390;-2.328;2023-04-25T10:38:35;12.52;;;4.85;;
24681;SDS011;12802;53.390;-2.328;2023-04-25T10:41:05;7.40;;;4.30;;
24681;SDS011;12802;53.390;-2.328;2023-04-25T10:43:44;7.20;;;3.08;;
24681;SDS011;12802;53.390;-2.328;2023-04-25T10:48:43;4.00;;;2.30;;
24681;SDS011;12802;53.390;-2.328;2023-04-25T10:51:15;5.28;;;3.03;;
24681;SDS011;12802;53.390;-2.328;2023-04-25T10:56:54;5.50;;;2.50;;
24681;SDS011;12802;53.390;-2.328;2023-04-25T10:59:15;7.10;;;2.65;;
24681;SDS011;12802;53.390;-2.328;2023-04-25T11:01:45;6.38;;;2.90;;
24681;SDS011;12802;53.390;-2.328;2023-04-25T11:04:46;7.13;;;3.00;;
24681;SDS011;12802;53.390;-2.328;2023-04-25T11:10:09;6.82;;;2.72;;
24681;SDS011;12802;53.390;-2.328;2023-04-25T11:12:35;4.18;;;2.30;;
24681;SDS011;12802;53.390;-2.328;2023-04-25T11:15:01;3.17;;;1.80;;
24681;SDS011;12802;53.390;-2.328;2023-04-25T11:17:28;4.90;;;2.80;;
24681;SDS011;12802;53.390;-2.328;2023-04-25T11:19:55;8.82;;;3.65;;
24681;SDS011;12802;53.390;-2.328;2023-04-25T11:22:21;9.68;;;4.20;;
24681;SDS011;12802;53.390;-2.328;2023-04-25T11:24:47;9.05;;;4.15;;
24681;SDS011;12802;53.390;-2.328;2023-04-25T11:27:13;11.00;;;3.83;;
24681;SDS011;12802;53.390;-2.328;2023-04-25T11:29:39;8.25;;;3.45;;
24681;SDS011;12802;53.390;-2.328;2023-04-25T11:32:05;7.72;;;3.42;;
24681;SDS011;12802;53.390;-2.328;2023-04-25T11:34:31;7.18;;;3.13;;
24681;SDS011;12802;53.390;-2.328;2023-04-25T11:36:58;8.15;;;3.00;;
24681;SDS011;12802;53.390;-2.328;2023-04-25T11:39:25;5.65;;;2.88;;
24681;SDS011;12802;53.390;-2.328;2023-04-25T11:41:52;7.57;;;3.10;;
24681;SDS011;12802;53.390;-2.328;2023-04-25T11:44:19;7.13;;;2.80;;
24681;SDS011;12802;53.390;-2.328;2023-04-25T11:46:45;6.70;;;2.97;;
24681;SDS011;12802;53.390;-2.328;2023-04-25T11:49:13;6.28;;;2.70;;
24681;SDS011;12802;53.390;-2.328;2023-04-25T11:51:40;8.57;;;3.03;;
24681;SDS011;12802;53.390;-2.328;2023-04-25T11:54:10;4.75;;;2.35;;
24681;SDS011;12802;53.390;-2.328;2023-04-25T11:56:37;6.20;;;2.63;;
24681;SDS011;12802;53.390;-2.328;2023-04-25T11:59:05;5.28;;;2.35;;
24681;SDS011;12802;53.390;-2.328;2023-04-25T12:01:32;4.38;;;2.38;;
24681;SDS011;12802;53.390;-2.328;2023-04-25T12:04:09;4.18;;;2.40;;
24681;SDS011;12802;53.390;-2.328;2023-04-25T12:06:37;4.85;;;2.45;;
24681;SDS011;12802;53.390;-2.328;2023-04-25T12:09:10;7.65;;;2.47;;
24681;SDS011;12802;53.390;-2.328;2023-04-25T12:11:42;4.38;;;2.60;;
24681;SDS011;12802;53.390;-2.328;2023-04-25T12:14:28;3.85;;;2.50;;
24681;SDS011;12802;53.390;-2.328;2023-04-25T12:16:57;4.75;;;2.35;;
24681;SDS011;12802;53.390;-2.328;2023-04-25T12:19:25;3.78;;;2.42;;
24681;SDS011;12802;53.390;-2.328;2023-04-25T12:21:51;5.50;;;2.38;;
24681;SDS011;12802;53.390;-2.328;2023-04-25T12:24:18;5.18;;;2.40;;
24681;SDS011;12802;53.390;-2.328;2023-04-25T12:26:53;4.72;;;2.40;;
24681;SDS011;12802;53.390;-2.328;2023-04-25T12:29:31;2.45;;;1.70;;
24681;SDS011;12802;53.390;-2.328;2023-04-25T12:31:58;4.65;;;2.17;;
24681;SDS011;12802;53.390;-2.328;2023-04-25T12:34:24;4.07;;;2.28;;
24681;SDS011;12802;53.390;-2.328;2023-04-25T12:36:51;6.97;;;2.67;;
24681;SDS011;12802;53.390;-2.328;2023-04-25T12:39:18;5.38;;;1.83;;
24681;SDS011;12802;53.390;-2.328;2023-04-25T12:41:45;9.23;;;2.58;;
24681;SDS011;12802;53.390;-2.328;2023-04-25T12:44:11;4.85;;;2.50;;
24681;SDS011;12802;53.390;-2.328;2023-04-25T12:46:38;4.43;;;2.20;;
24681;SDS011;12802;53.390;-2.328;2023-04-25T12:49:04;6.13;;;2.90;;
24681;SDS011;12802;53.390;-2.328;2023-04-25T12:51:32;7.13;;;2.67;;
24681;SDS011;12802;53.390;-2.328;2023-04-25T12:53:58;6.93;;;2.55;;
24681;SDS011;12802;53.390;-2.328;2023-04-25T12:56:25;4.93;;;2.50;;
24681;SDS011;12802;53.390;-2.328;2023-04-25T12:58:52;5.97;;;2.10;;
24681;SDS011;12802;53.390;-2.328;2023-04-25T13:01:19;7.93;;;2.55;;
24681;SDS011;12802;53.390;-2.328;2023-04-25T13:03:45;9.15;;;3.00;;
24681;SDS011;12802;53.390;-2.328;2023-04-25T13:06:12;7.32;;;2.97;;
24681;SDS011;12802;53.390;-2.328;2023-04-25T13:08:38;6.10;;;2.72;;
24681;SDS011;12802;53.390;-2.328;2023-04-25T13:11:05;4.55;;;2.40;;
24681;SDS011;12802;53.390;-2.328;2023-04-25T13:13:31;8.75;;;2.50;;
24681;SDS011;12802;53.390;-2.328;2023-04-25T13:15:57;7.30;;;3.00;;
24681;SDS011;12802;53.390;-2.328;2023-04-25T13:18:23;5.45;;;2.67;;
24681;SDS011;12802;53.390;-2.328;2023-04-25T13:20:55;6.25;;;2.67;;
24681;SDS011;12802;53.390;-2.328;2023-04-25T13:23:21;4.38;;;2.58;;
24681;SDS011;12802;53.390;-2.328;2023-04-25T13:25:47;8.00;;;2.95;;
24681;SDS011;12802;53.390;-2.328;2023-04-25T13:28:13;5.50;;;3.03;;
24681;SDS011;12802;53.390;-2.328;2023-04-25T13:30:40;6.55;;;2.70;;
24681;SDS011;12802;53.390;-2.328;2023-04-25T13:33:06;5.32;;;2.33;;
24681;SDS011;12802;53.390;-2.328;2023-04-25T13:35:32;5.05;;;2.75;;
24681;SDS011;12802;53.390;-2.328;2023-04-25T13:37:59;6.22;;;2.80;;
24681;SDS011;12802;53.390;-2.328;2023-04-25T13:40:26;4.70;;;2.97;;
24681;SDS011;12802;53.390;-2.328;2023-04-25T13:42:52;7.25;;;3.28;;
24681;SDS011;12802;53.390;-2.328;2023-04-25T13:45:19;4.78;;;2.72;;
24681;SDS011;12802;53.390;-2.328;2023-04-25T13:47:45;7.20;;;2.60;;
24681;SDS011;12802;53.390;-2.328;2023-04-25T13:50:11;7.72;;;2.85;;
24681;SDS011;12802;53.390;-2.328;2023-04-25T13:52:38;7.95;;;2.95;;
24681;SDS011;12802;53.390;-2.328;2023-04-25T13:55:05;5.65;;;3.10;;
24681;SDS011;12802;53.390;-2.328;2023-04-25T13:57:35;7.47;;;3.05;;
24681;SDS011;12802;53.390;-2.328;2023-04-25T14:00:02;4.20;;;2.75;;
24681;SDS011;12802;53.390;-2.328;2023-04-25T14:02:37;6.57;;;2.90;;
24681;SDS011;12802;53.390;-2.328;2023-04-25T14:07:29;7.78;;;3.50;;
24681;SDS011;12802;53.390;-2.328;2023-04-25T14:09:55;4.85;;;3.03;;
24681;SDS011;12802;53.390;-2.328;2023-04-25T14:12:22;9.60;;;3.33;;
24681;SDS011;12802;53.390;-2.328;2023-04-25T14:14:48;5.47;;;3.28;;
24681;SDS011;12802;53.390;-2.328;2023-04-25T14:17:14;7.82;;;3.25;;
24681;SDS011;12802;53.390;-2.328;2023-04-25T14:19:40;9.30;;;3.20;;
24681;SDS011;12802;53.390;-2.328;2023-04-25T14:22:10;7.07;;;3.40;;
24681;SDS011;12802;53.390;-2.328;2023-04-25T14:24:36;9.18;;;3.38;;
24681;SDS011;12802;53.390;-2.328;2023-04-25T14:27:03;4.35;;;3.05;;
24681;SDS011;12802;53.390;-2.328;2023-04-25T14:29:29;9.25;;;3.03;;
24681;SDS011;12802;53.390;-2.328;2023-04-25T14:31:55;7.93;;;3.42;;
24681;SDS011;12802;53.390;-2.328;2023-04-25T14:34:22;5.68;;;3.47;;
24681;SDS011;12802;53.390;-2.328;2023-04-25T14:36:48;5.32;;;3.35;;
24681;SDS011;12802;53.390;-2.328;2023-04-25T14:39:14;6.43;;;3.63;;
24681;SDS011;12802;53.390;-2.328;2023-04-25T14:41:41;6.88;;;2.95;;
24681;SDS011;12802;53.390;-2.328;2023-04-25T14:44:07;5.32;;;2.78;;
24681;SDS011;12802;53.390;-2.328;2023-04-25T14:46:33;6.82;;;3.13;;
24681;SDS011;12802;53.390;-2.328;2023-04-25T14:48:59;7.15;;;3.58;;
24681;SDS011;12802;53.390;-2.328;2023-04-25T14:51:25;12.75;;;3.92;;
24681;SDS011;12802;53.390;-2.328;2023-04-25T14:53:51;11.35;;;3.45;;
24681;SDS011;12802;53.390;-2.328;2023-04-25T14:56:17;12.13;;;3.78;;
24681;SDS011;12802;53.390;-2.328;2023-04-25T14:58:43;8.15;;;3.90;;